Time;durP1;ratioP1;P1;durP2;ratioP2;P2;SDS_P1;SDS_P2;PMS_P1;PMS_P2;Temp;Humidity;BMP_temperature;BMP_pressure;BME280_temperature;BME280_humidity;BME280_pressure;Samples;Min_cycle;Max_cycle;Signal;HPM_P1;HPM_P2
2023/03/15 00:00:43;;;;;;;0.90;0.30;;;;;;;-0.79;55.47;100711.44;5055927;28;20047;-67
2023/03/15 00:03:09;;;;;;;3.17;0.38;;;;;;;-1.20;56.71;100716.31;5055854;28;20669;-67
2023/03/15 00:05:35;;;;;;;9.80;0.90;;;;;;;-1.03;56.17;100725.00;5054266;28;20717;-67
2023/03/15 00:08:01;;;;;;;7.53;0.35;;;;;;;-1.01;55.90;100720.72;5057809;28;20033;-74
2023/03/15 00:10:27;;;;;;;4.00;0.40;;;;;;;-0.92;55.68;100719.91;5056452;28;20028;-74
2023/03/15 00:12:52;;;;;;;6.95;0.95;;;;;;;-1.19;56.51;100723.16;5056159;28;21878;-73
2023/03/15 00:15:18;;;;;;;5.45;0.43;;;;;;;-1.08;55.91;100726.66;5055892;28;20040;-74
2023/03/15 00:17:44;;;;;;;5.70;0.73;;;;;;;-1.36;57.24;100729.88;5058623;28;20032;-74
2023/03/15 00:20:11;;;;;;;5.57;0.60;;;;;;;-1.08;56.42;100731.78;5056314;28;20371;-75
2023/03/15 00:22:36;;;;;;;4.28;0.55;;;;;;;-1.11;56.42;100748.84;5035592;28;20513;-74
2023/03/15 00:25:02;;;;;;;3.78;0.50;;;;;;;-1.13;56.48;100753.09;5057143;28;20059;-74
2023/03/15 00:27:28;;;;;;;2.85;0.52;;;;;;;-1.08;56.32;100751.44;5044199;28;20063;-75
2023/03/15 00:29:53;;;;;;;6.93;0.50;;;;;;;-0.91;55.90;100762.69;5054967;28;20037;-75
2023/03/15 00:32:18;;;;;;;1.20;0.40;;;;;;;-0.88;55.17;100769.56;5055541;28;20043;-66
2023/03/15 00:34:47;;;;;;;6.35;1.20;;;;;;;-0.87;54.98;100781.53;5054295;28;20064;-69
2023/03/15 00:37:15;;;;;;;3.13;0.60;;;;;;;-0.98;55.38;100784.03;5041270;28;20044;-69
2023/03/15 00:39:44;;;;;;;2.50;1.00;;;;;;;-0.95;55.08;100784.06;5056904;28;20041;-69
2023/03/15 00:42:15;;;;;;;7.55;0.80;;;;;;;-0.98;55.43;100790.00;5051888;28;20103;-70
2023/03/15 00:44:44;;;;;;;4.32;0.95;;;;;;;-1.05;55.66;100793.38;5055958;28;20043;-68
2023/03/15 00:47:12;;;;;;;3.60;0.40;;;;;;;-1.04;55.93;100794.22;5054253;28;21489;-70
2023/03/15 00:49:38;;;;;;;9.15;1.30;;;;;;;-1.12;56.29;100806.13;5052473;28;20519;-71
2023/03/15 00:52:05;;;;;;;6.40;0.47;;;;;;;-1.03;55.59;100807.09;5035882;28;20493;-71
2023/03/15 00:54:34;;;;;;;2.40;0.50;;;;;;;-1.01;55.66;100810.53;5055248;28;20118;-70
2023/03/15 00:57:01;;;;;;;6.32;1.00;;;;;;;-1.00;55.43;100812.22;5054574;28;20036;-68
2023/03/15 00:59:33;;;;;;;3.58;0.60;;;;;;;-0.96;55.43;100815.69;5055234;28;20042;-72
2023/03/15 01:02:05;;;;;;;4.32;0.40;;;;;;;-1.00;55.80;100813.94;5054729;28;20119;-72
2023/03/15 01:04:30;;;;;;;2.55;0.80;;;;;;;-1.02;55.83;100816.50;5040308;28;20043;-71
2023/03/15 01:06:57;;;;;;;4.38;0.35;;;;;;;-1.07;56.24;100820.69;5053802;28;20024;-71
2023/03/15 01:09:22;;;;;;;2.55;0.32;;;;;;;-1.30;57.03;100822.25;5055078;28;20587;-71
2023/03/15 01:11:48;;;;;;;8.48;0.70;;;;;;;-0.97;56.49;100840.50;5037382;28;20040;-70
2023/03/15 01:14:14;;;;;;;15.43;0.85;;;;;;;-1.00;56.30;100832.75;5032394;28;20119;-70
2023/03/15 01:16:40;;;;;;;8.95;1.00;;;;;;;-0.73;56.78;100838.91;5045766;28;20032;-70
2023/03/15 01:19:08;;;;;;;5.22;0.60;;;;;;;-0.58;56.42;100844.16;5042949;28;20086;-71
2023/03/15 01:21:33;;;;;;;2.53;0.30;;;;;;;-0.50;55.90;100851.03;5035864;28;21070;-70
2023/03/15 01:23:59;;;;;;;7.03;0.45;;;;;;;-0.43;55.65;100861.34;5042465;28;20123;-69
2023/03/15 01:26:25;;;;;;;3.65;0.30;;;;;;;-0.32;55.80;100866.56;5055885;28;20418;-69
2023/03/15 01:28:50;;;;;;;6.63;0.75;;;;;;;-0.26;55.66;100869.16;5044631;28;20563;-69
2023/03/15 01:31:21;;;;;;;4.68;0.50;;;;;;;-0.26;55.42;100864.03;5019361;28;20115;-69
2023/03/15 01:33:47;;;;;;;1.35;0.20;;;;;;;-0.27;55.12;100870.00;5002548;28;20036;-70
2023/03/15 01:36:13;;;;;;;1.60;0.32;;;;;;;-0.36;55.07;100873.38;5048646;28;20497;-69
2023/03/15 01:38:39;;;;;;;3.40;0.40;;;;;;;-0.65;55.65;100877.47;5036777;28;20335;-69
2023/03/15 01:41:05;;;;;;;5.75;0.50;;;;;;;-0.71;55.70;100880.84;5042026;28;20032;-67
2023/03/15 01:43:31;;;;;;;4.57;0.30;;;;;;;-0.47;55.19;100874.16;5056956;28;20036;-67
2023/03/15 01:46:02;;;;;;;3.75;0.47;;;;;;;-0.56;55.47;100870.69;5040377;28;20815;-68
2023/03/15 01:48:30;;;;;;;2.15;0.88;;;;;;;-0.51;55.18;100872.44;5055271;28;20039;-68
2023/03/15 01:50:56;;;;;;;1.23;0.20;;;;;;;-0.53;54.83;100885.25;5044150;28;20036;-69
2023/03/15 01:53:26;;;;;;;0.82;0.20;;;;;;;-0.51;55.18;100883.56;5042806;28;20497;-67
2023/03/15 01:55:53;;;;;;;3.47;0.30;;;;;;;-0.56;55.37;100890.38;5047403;28;20043;-68
2023/03/15 01:58:25;;;;;;;3.03;0.20;;;;;;;-0.57;55.24;100889.53;5069474;28;20036;-68
2023/03/15 02:00:51;;;;;;;2.63;0.20;;;;;;;-0.76;55.59;100890.25;5047235;28;20040;-69
2023/03/15 02:03:23;;;;;;;5.78;0.30;;;;;;;-0.84;55.50;100894.44;5048842;28;20036;-70
2023/03/15 02:05:55;;;;;;;2.92;0.28;;;;;;;-0.91;55.71;100897.81;5046961;28;20702;-70
2023/03/15 02:08:40;;;;;;;0.68;0.40;;;;;;;-0.92;55.41;100907.22;5042560;28;20032;-70
2023/03/15 02:11:06;;;;;;;6.25;0.30;;;;;;;-0.97;55.66;100925.16;5059339;28;20040;-69
2023/03/15 02:13:35;;;;;;;4.05;0.20;;;;;;;-0.91;55.69;100931.19;5043592;28;20032;-70
2023/03/15 02:16:05;;;;;;;10.43;0.40;;;;;;;-0.81;55.47;100940.69;5060663;28;20041;-70
2023/03/15 02:18:37;;;;;;;;;;;;;;;-0.76;55.87;100939.00;5059599;28;20035;-69
2023/03/15 02:21:44;;;;;;;2.13;0.10;;;;;;;-0.60;56.00;100940.81;5060782;28;19931;-70
2023/03/15 02:24:17;;;;;;;6.07;0.30;;;;;;;-0.56;55.57;100952.00;5050319;28;20035;-69
2023/03/15 02:26:48;;;;;;;3.20;0.30;;;;;;;-0.45;55.63;100950.34;5058352;28;20373;-70
2023/03/15 02:29:14;;;;;;;1.75;0.20;;;;;;;-0.58;55.62;100953.69;5059853;28;20044;-71
2023/03/15 02:31:40;;;;;;;2.40;0.50;;;;;;;-0.71;55.46;100947.59;5060921;28;20500;-70
2023/03/15 02:34:06;;;;;;;2.13;0.40;;;;;;;-0.52;55.24;100946.03;5061401;28;20170;-69
2023/03/15 02:36:34;;;;;;;6.47;0.38;;;;;;;-0.50;55.26;100936.63;5042482;28;20044;-70
2023/03/15 02:39:00;;;;;;;2.40;0.17;;;;;;;-0.46;54.81;100942.63;5062104;28;20150;-70
2023/03/15 02:41:37;;;;;;;2.83;0.77;;;;;;;-0.57;54.57;100946.00;5060860;28;20024;-69
2023/03/15 02:44:07;;;;;;;1.58;0.20;;;;;;;-0.72;55.05;100953.59;5061284;28;20398;-70
2023/03/15 02:46:34;;;;;;;1.48;0.30;;;;;;;-0.70;54.56;100963.88;5062553;28;20409;-73
2023/03/15 02:49:00;;;;;;;2.70;0.30;;;;;;;-1.00;55.79;100962.75;5063716;28;20032;-74
2023/03/15 02:51:28;;;;;;;3.58;0.10;;;;;;;-0.96;55.06;100961.94;5050638;28;20036;-73
2023/03/15 02:53:55;;;;;;;1.52;0.30;;;;;;;-0.94;54.95;100967.94;5052180;28;20409;-75
2023/03/15 02:56:21;;;;;;;7.22;0.30;;;;;;;-1.03;55.22;100971.28;5042405;28;20028;-70
2023/03/15 02:58:47;;;;;;;2.83;0.88;;;;;;;-1.13;56.08;100969.41;5060577;28;20033;-71
2023/03/15 03:01:14;;;;;;;4.68;0.75;;;;;;;-1.03;55.58;100978.13;5058522;28;20040;-71
2023/03/15 03:03:41;;;;;;;4.45;0.35;;;;;;;-1.04;55.57;100989.22;5043070;28;20055;-70
2023/03/15 03:06:07;;;;;;;4.63;0.32;;;;;;;-1.13;55.71;100978.81;5054505;28;20045;-71
2023/03/15 03:08:34;;;;;;;3.92;0.57;;;;;;;-1.18;55.83;100981.34;5043206;28;20047;-72
2023/03/15 03:11:00;;;;;;;6.47;0.30;;;;;;;-1.10;55.74;100984.84;5057142;28;20041;-71
2023/03/15 03:13:26;;;;;;;2.88;0.43;;;;;;;-1.07;55.41;100995.13;5041876;28;20028;-71
2023/03/15 03:15:58;;;;;;;1.42;0.93;;;;;;;-1.09;55.63;100995.97;5039075;28;20051;-71
2023/03/15 03:18:34;;;;;;;3.00;0.40;;;;;;;-1.28;56.23;101011.16;5037311;28;20462;-66
2023/03/15 03:21:04;;;;;;;7.93;0.80;;;;;;;-1.26;56.06;101022.31;5046655;28;20025;-72
2023/03/15 03:23:32;;;;;;;1.85;0.52;;;;;;;-1.31;56.33;101017.97;5040707;28;20039;-71
2023/03/15 03:25:58;;;;;;;1.50;0.38;;;;;;;-1.24;55.83;101032.56;5039852;28;20038;-72
2023/03/15 03:28:26;;;;;;;3.25;1.00;;;;;;;-1.26;55.93;101024.03;5058856;28;21613;-72
2023/03/15 03:30:53;;;;;;;9.30;1.33;;;;;;;-1.31;55.60;101035.91;5039173;28;20052;-68
2023/03/15 03:33:20;;;;;;;2.95;0.38;;;;;;;-1.36;55.22;101032.44;5055529;28;20032;-69
2023/03/15 03:35:46;;;;;;;3.28;0.65;;;;;;;-1.39;55.41;101039.25;5045291;28;20043;-70
2023/03/15 03:38:13;;;;;;;8.07;0.93;;;;;;;-1.57;55.64;101044.16;5046660;28;20043;-68
2023/03/15 03:40:42;;;;;;;1.88;0.25;;;;;;;-1.54;55.27;101044.19;5040173;28;20048;-69
2023/03/15 03:43:08;;;;;;;2.45;0.60;;;;;;;-1.53;55.48;101050.16;5057432;28;20286;-69
2023/03/15 03:45:34;;;;;;;3.65;0.55;;;;;;;-1.51;55.84;101054.50;5051572;28;20044;-68
2023/03/15 03:48:00;;;;;;;2.60;0.50;;;;;;;-1.59;56.10;101056.94;5047693;28;20032;-68
2023/03/15 03:50:27;;;;;;;3.08;0.68;;;;;;;-1.63;56.30;101065.44;5036624;28;21028;-70
2023/03/15 03:52:53;;;;;;;3.55;0.60;;;;;;;-1.62;55.95;101069.72;5056168;28;20093;-69
2023/03/15 03:55:25;;;;;;;1.52;0.20;;;;;;;-1.73;56.22;101078.09;5038105;28;20040;-68
2023/03/15 03:57:52;;;;;;;3.03;0.68;;;;;;;-1.61;56.03;101083.41;5042372;28;20036;-69
2023/03/15 04:00:34;;;;;;;9.68;0.60;;;;;;;-1.63;56.05;101090.19;5038095;28;20040;-68
2023/03/15 04:03:00;;;;;;;6.47;0.50;;;;;;;-1.60;55.97;101095.38;5038972;28;20039;-68
2023/03/15 04:05:27;;;;;;;1.50;0.30;;;;;;;-1.58;55.81;101093.69;5041332;28;20040;-69
2023/03/15 04:07:53;;;;;;;5.75;0.75;;;;;;;-1.62;55.79;101097.03;5041722;28;20054;-70
2023/03/15 04:10:25;;;;;;;2.85;1.08;;;;;;;-1.76;56.75;101093.44;5052976;28;20036;-69
2023/03/15 04:12:55;;;;;;;2.72;0.65;;;;;;;-1.62;56.46;101095.38;5038299;28;20042;-66
2023/03/15 04:15:23;;;;;;;6.88;0.80;;;;;;;-1.87;57.36;101101.81;5038732;28;20118;-75
2023/03/15 04:17:54;;;;;;;5.22;0.90;;;;;;;-1.55;56.25;101098.88;5048658;28;20126;-75
2023/03/15 04:20:24;;;;;;;2.05;0.60;;;;;;;-1.75;56.83;101110.56;5046351;28;20213;-69
2023/03/15 04:22:49;;;;;;;1.25;0.50;;;;;;;-1.65;56.67;101117.50;5057417;28;20127;-68
2023/03/15 04:25:51;;;;;;;5.25;0.70;;;;;;;-1.57;56.15;101109.94;5034403;28;20048;-67
2023/03/15 04:28:54;;;;;;;5.80;0.30;;;;;;;-1.51;56.08;101116.03;4975231;28;20038;-67
2023/03/15 04:31:36;;;;;;;1.25;0.20;;;;;;;-1.57;55.99;101118.50;5038676;28;20036;-69
2023/03/15 04:34:20;;;;;;;4.03;0.25;;;;;;;-1.51;56.04;101121.16;5055401;28;20062;-68
2023/03/15 04:36:58;;;;;;;7.38;0.55;;;;;;;-1.53;55.85;101127.97;5042323;28;20077;-69
2023/03/15 04:40:00;;;;;;;3.50;0.35;;;;;;;-1.55;56.10;101132.19;5038001;28;20032;-69
2023/03/15 04:42:39;;;;;;;3.30;0.50;;;;;;;-1.52;55.84;101139.06;5035882;28;20063;-69
2023/03/15 04:45:28;;;;;;;6.90;0.35;;;;;;;-1.59;56.28;101144.09;5042603;28;20036;-73
2023/03/15 04:47:56;;;;;;;4.60;0.20;;;;;;;-1.52;56.06;101150.19;5056288;28;20040;-67
2023/03/15 04:50:42;;;;;;;7.53;0.20;;;;;;;-1.58;56.38;101139.81;5037963;28;20049;-67
2023/03/15 04:53:19;;;;;;;2.72;0.40;;;;;;;-1.46;55.91;101149.41;5038998;28;20458;-67
2023/03/15 04:56:06;;;;;;;4.85;0.17;;;;;;;-1.50;55.88;101158.75;5039321;28;20331;-67
2023/03/15 04:58:39;;;;;;;6.22;0.40;;;;;;;-1.55;56.17;101155.28;5043282;28;20201;-72
2023/03/15 05:01:28;;;;;;;1.33;0.10;;;;;;;-1.45;55.97;101157.09;5043274;28;20570;-72
2023/03/15 05:04:20;;;;;;;1.38;0.20;;;;;;;-1.43;55.21;101165.69;5026561;28;20039;-70
2023/03/15 05:07:12;;;;;;;4.55;0.47;;;;;;;-1.54;55.75;101171.50;5051963;28;20043;-71
2023/03/15 05:10:07;;;;;;;5.10;0.40;;;;;;;-1.37;54.88;101170.06;4983757;28;20191;-66
2023/03/15 05:12:39;;;;;;;;;;;;;;;-1.38;54.78;101169.16;5043138;28;20039;-69
2023/03/15 05:15:30;;;;;;;3.85;0.28;;;;;;;-1.42;54.58;101176.78;5032830;28;19966;-68
2023/03/15 05:18:16;;;;;;;3.13;0.63;;;;;;;-1.49;54.62;101165.59;5052391;28;20204;-69
2023/03/15 05:21:04;;;;;;;3.15;0.13;;;;;;;-1.42;54.17;101162.31;5040714;28;20985;-68
2023/03/15 05:23:56;;;;;;;3.78;0.15;;;;;;;-1.52;54.44;101170.69;5049001;28;20052;-67
2023/03/15 05:26:48;;;;;;;6.22;0.40;;;;;;;-1.54;54.36;101182.63;5034859;28;20052;-72
2023/03/15 05:29:30;;;;;;;4.00;0.85;;;;;;;-1.55;54.22;101182.59;5035802;28;20040;-70
2023/03/15 05:32:16;;;;;;;5.43;0.28;;;;;;;-1.62;54.60;101186.75;5014995;28;20121;-66
2023/03/15 05:35:00;;;;;;;6.63;0.38;;;;;;;-1.57;54.58;101181.72;5055214;28;20040;-69
2023/03/15 05:37:58;;;;;;;3.42;0.20;;;;;;;-1.62;53.87;101189.31;5015694;28;20044;-69
2023/03/15 05:40:46;;;;;;;3.15;0.55;;;;;;;-1.69;54.05;101188.34;5043023;28;20567;-70
2023/03/15 05:43:31;;;;;;;2.97;0.28;;;;;;;-1.70;53.95;101188.34;5053930;28;20024;-74
2023/03/15 05:46:12;;;;;;;5.20;0.60;;;;;;;-1.96;54.47;101201.59;5040797;28;20122;-73
2023/03/15 05:48:57;;;;;;;10.38;0.40;;;;;;;-1.94;54.37;101199.91;5056251;28;20096;-69
2023/03/15 05:51:41;;;;;;;5.57;1.25;;;;;;;-1.81;54.26;101199.28;5044155;28;20039;-70
2023/03/15 05:54:26;;;;;;;3.17;0.35;;;;;;;-2.02;54.79;101209.19;5015644;28;20036;-69
2023/03/15 05:57:10;;;;;;;4.00;0.68;;;;;;;-1.99;54.76;101216.91;5056269;28;20131;-68
2023/03/15 05:59:54;;;;;;;4.20;0.47;;;;;;;-1.92;54.22;101218.75;5053628;28;20043;-73
2023/03/15 06:02:41;;;;;;;2.97;0.60;;;;;;;-1.70;54.24;101221.66;5054505;28;20028;-73
2023/03/15 06:05:20;;;;;;;6.38;0.25;;;;;;;-2.10;54.38;101220.97;5036991;28;20052;-72
2023/03/15 06:07:46;;;;;;;0.35;0.10;;;;;;;-1.79;53.85;101227.50;5042290;28;20901;-73
2023/03/15 06:10:13;;;;;;;7.40;1.05;;;;;;;-1.60;53.82;101238.91;5044581;28;20044;-71
2023/03/15 06:12:39;;;;;;;5.97;0.28;;;;;;;-1.59;54.01;101245.78;5033658;28;20032;-68
2023/03/15 06:15:05;;;;;;;1.55;0.43;;;;;;;-1.27;52.97;101259.09;5039543;28;20072;-66
2023/03/15 06:17:33;;;;;;;4.22;0.73;;;;;;;-1.03;52.48;101258.63;5049821;28;20130;-72
2023/03/15 06:19:58;;;;;;;7.55;0.40;;;;;;;-0.77;51.56;101255.56;5040982;28;20811;-72
2023/03/15 06:22:24;;;;;;;3.00;0.10;;;;;;;-1.04;51.36;101246.66;5038203;28;20611;-71
2023/03/15 06:24:57;;;;;;;6.15;0.70;;;;;;;-0.59;50.79;101265.22;5053796;28;20492;-71
2023/03/15 06:27:23;;;;;;;0.63;0.35;;;;;;;-0.53;50.46;101265.25;5036706;28;20078;-72
2023/03/15 06:29:50;;;;;;;2.40;0.70;;;;;;;-0.15;50.17;101277.69;5040419;28;20539;-70
2023/03/15 06:32:18;;;;;;;0.95;0.20;;;;;;;-0.25;49.48;101281.88;5040400;28;20047;-71
2023/03/15 06:34:44;;;;;;;3.85;0.17;;;;;;;-0.57;50.16;101277.22;5035935;28;20786;-72
2023/03/15 06:37:12;;;;;;;2.60;0.10;;;;;;;-0.46;50.13;101284.16;5038028;28;20032;-73
2023/03/15 06:39:39;;;;;;;4.93;0.45;;;;;;;-0.37;50.25;101294.56;5039497;28;20550;-68
2023/03/15 06:42:07;;;;;;;3.95;0.30;;;;;;;-0.70;51.40;101290.75;5044208;28;20784;-66
2023/03/15 06:44:36;;;;;;;3.28;0.45;;;;;;;-0.71;50.84;101295.84;5030705;28;20403;-67
2023/03/15 06:47:06;;;;;;;2.50;0.20;;;;;;;-0.48;50.81;101308.97;5032279;28;20089;-66
2023/03/15 06:49:31;;;;;;;9.32;0.32;;;;;;;-1.00;51.38;101301.41;5034952;28;20037;-66
2023/03/15 06:51:58;;;;;;;5.70;0.10;;;;;;;-0.80;50.60;101307.69;5047434;28;20028;-68
2023/03/15 06:54:24;;;;;;;6.75;0.13;;;;;;;-1.04;50.87;101317.59;5054554;28;20047;-66
2023/03/15 06:56:50;;;;;;;6.30;0.17;;;;;;;-0.69;50.57;101319.84;5031086;28;20040;-67
2023/03/15 06:59:16;;;;;;;0.98;0.40;;;;;;;-0.71;50.36;101322.38;5043317;28;20032;-69
2023/03/15 07:01:41;;;;;;;0.80;0.20;;;;;;;0.84;49.75;101329.19;5056752;28;20507;-70
2023/03/15 07:04:08;;;;;;;4.72;0.05;;;;;;;3.59;42.05;101324.66;5057994;28;20036;-68
2023/03/15 07:06:34;;;;;;;4.90;0.20;;;;;;;5.73;38.36;101322.09;5049154;28;20043;-70
2023/03/15 07:09:01;;;;;;;5.25;0.13;;;;;;;5.88;34.72;101319.28;5060979;28;20130;-70
2023/03/15 07:11:26;;;;;;;3.25;0.10;;;;;;;3.88;38.28;101330.56;5055537;28;20078;-70
2023/03/15 07:13:52;;;;;;;6.30;0.88;;;;;;;2.44;41.64;101336.81;5057100;28;20546;-67
2023/03/15 07:16:17;;;;;;;2.97;0.10;;;;;;;2.11;43.48;101338.47;5056776;28;20039;-65
2023/03/15 07:18:43;;;;;;;3.88;0.20;;;;;;;1.61;44.47;101336.56;5056615;28;20579;-65
2023/03/15 07:21:08;;;;;;;6.38;0.50;;;;;;;3.46;43.86;101337.63;5041818;28;20059;-65
2023/03/15 07:23:33;;;;;;;4.13;0.47;;;;;;;6.77;39.01;101328.38;5056875;28;20735;-66
2023/03/15 07:25:59;;;;;;;3.10;0.30;;;;;;;8.38;33.16;101334.72;5037358;28;20126;-64
2023/03/15 07:28:26;;;;;;;0.88;0.10;;;;;;;9.88;33.57;101329.94;5057064;28;20116;-65
2023/03/15 07:31:00;;;;;;;3.80;0.52;;;;;;;11.96;29.93;101330.78;5054658;28;20567;-67
2023/03/15 07:33:28;;;;;;;1.80;0.17;;;;;;;11.22;28.04;101328.25;5056589;28;20103;-66
2023/03/15 07:35:54;;;;;;;3.55;0.22;;;;;;;11.27;27.60;101333.31;5055591;28;20074;-67
2023/03/15 07:38:21;;;;;;;6.35;0.30;;;;;;;12.05;28.10;101346.16;5056540;28;20413;-65
2023/03/15 07:40:48;;;;;;;3.40;0.30;;;;;;;13.26;25.79;101340.31;5054319;28;20315;-65
2023/03/15 07:43:13;;;;;;;6.65;0.60;;;;;;;13.29;26.02;101343.66;5057615;28;20650;-67
2023/03/15 07:45:40;;;;;;;3.15;0.40;;;;;;;12.64;25.49;101350.75;5037348;28;20047;-65
2023/03/15 07:48:06;;;;;;;2.55;0.63;;;;;;;12.65;24.90;101357.72;5056126;28;20126;-65
2023/03/15 07:50:31;;;;;;;2.85;0.60;;;;;;;13.67;25.83;101356.00;5054150;28;20584;-67
2023/03/15 07:52:57;;;;;;;4.80;0.75;;;;;;;13.71;23.79;101358.44;5055093;28;20934;-68
2023/03/15 07:55:24;;;;;;;2.25;0.47;;;;;;;11.25;26.93;101372.59;5056679;28;20092;-66
2023/03/15 07:57:50;;;;;;;3.08;0.30;;;;;;;12.05;26.36;101380.22;5054107;28;20131;-68
2023/03/15 08:00:17;;;;;;;3.33;0.25;;;;;;;10.93;28.24;101395.50;5055935;28;20047;-67
2023/03/15 08:02:42;;;;;;;2.42;0.38;;;;;;;9.78;29.94;101393.72;5055808;28;20040;-67
2023/03/15 08:05:09;;;;;;;3.22;0.63;;;;;;;8.90;31.95;101403.88;5057882;28;20390;-67
2023/03/15 08:07:35;;;;;;;2.72;0.30;;;;;;;9.07;31.89;101410.41;5053261;28;20981;-67
2023/03/15 08:10:02;;;;;;;3.75;0.40;;;;;;;9.60;29.55;101415.97;5058338;28;20376;-67
2023/03/15 08:12:28;;;;;;;2.20;0.43;;;;;;;7.43;32.03;101422.56;5053908;28;20039;-65
2023/03/15 08:14:54;;;;;;;2.65;0.30;;;;;;;5.66;35.59;101432.84;5056019;28;20043;-65
2023/03/15 08:17:20;;;;;;;3.65;0.28;;;;;;;5.14;37.61;101439.34;5058470;28;20039;-64
2023/03/15 08:19:45;;;;;;;5.65;0.30;;;;;;;4.70;38.87;101457.78;5053518;28;20051;-66
2023/03/15 08:22:10;;;;;;;4.20;0.20;;;;;;;3.35;42.94;101464.25;5058063;28;20035;-67
2023/03/15 08:24:36;;;;;;;2.38;0.60;;;;;;;3.13;44.40;101469.38;5053028;28;20032;-67
2023/03/15 08:27:03;;;;;;;11.10;0.93;;;;;;;2.27;46.73;101483.81;5058452;28;20548;-66
2023/03/15 08:29:29;;;;;;;6.55;1.23;;;;;;;1.59;48.30;101492.88;5053427;28;20036;-66
2023/03/15 08:31:55;;;;;;;6.50;0.40;;;;;;;0.62;50.20;101489.38;5057702;28;20118;-64
2023/03/15 08:34:21;;;;;;;1.88;0.10;;;;;;;0.36;51.43;101505.34;5040326;28;20170;-68
2023/03/15 08:36:47;;;;;;;3.75;0.20;;;;;;;-0.20;52.54;101519.16;5056168;28;20428;-64
2023/03/15 08:39:13;;;;;;;1.15;0.20;;;;;;;-0.73;54.48;101529.41;5055624;28;20047;-66
2023/03/15 08:41:39;;;;;;;2.97;0.10;;;;;;;-1.40;56.46;101540.13;5032883;28;20084;-67
2023/03/15 08:44:05;;;;;;;0.20;0.00;;;;;;;-1.04;55.83;101546.84;5056437;28;20038;-65
2023/03/15 08:46:32;;;;;;;2.55;0.17;;;;;;;-1.50;56.78;101568.09;5053622;28;20481;-66
2023/03/15 08:48:58;;;;;;;2.88;0.10;;;;;;;-1.63;56.93;101580.66;5055014;28;20153;-66
2023/03/15 08:51:25;;;;;;;3.05;0.10;;;;;;;-1.83;58.15;101600.72;5053640;28;20040;-68
2023/03/15 08:53:52;;;;;;;3.58;0.08;;;;;;;-1.52;57.04;101598.84;5052613;28;20682;-67
2023/03/15 08:56:18;;;;;;;1.23;0.00;;;;;;;-2.49;59.61;101591.44;5052426;28;20383;-66
2023/03/15 08:58:43;;;;;;;1.67;0.00;;;;;;;-1.57;57.19;101584.19;5052355;28;20055;-65
2023/03/15 09:01:13;;;;;;;2.58;0.30;;;;;;;-1.29;56.26;101575.38;5054821;28;20029;-67
2023/03/15 09:03:39;;;;;;;0.70;0.10;;;;;;;-0.97;55.28;101576.91;5051349;28;20862;-67
2023/03/15 09:06:04;;;;;;;0.73;0.10;;;;;;;-0.98;55.33;101585.44;5053822;28;20035;-65
2023/03/15 09:08:32;;;;;;;0.93;0.20;;;;;;;-0.88;55.31;101585.63;5055014;28;20055;-67
2023/03/15 09:10:58;;;;;;;1.30;0.00;;;;;;;-1.14;55.84;101592.78;5052289;28;20032;-67
2023/03/15 09:13:24;;;;;;;0.45;0.10;;;;;;;-0.67;54.66;101595.41;5055268;28;20036;-66
2023/03/15 09:15:51;;;;;;;4.03;0.10;;;;;;;-0.90;54.84;101595.84;5051612;28;20394;-64
2023/03/15 09:18:17;;;;;;;0.82;0.13;;;;;;;-0.40;53.89;101593.31;5052268;28;20267;-65
2023/03/15 09:20:43;;;;;;;0.98;0.10;;;;;;;-0.10;53.70;101588.66;5051245;28;20059;-64
2023/03/15 09:23:08;;;;;;;0.50;0.15;;;;;;;-0.20;53.58;101575.66;5051339;28;20036;-63
2023/03/15 09:25:35;;;;;;;3.67;0.08;;;;;;;-0.11;53.15;101569.81;5052926;28;20372;-68
2023/03/15 09:28:05;;;;;;;1.27;0.50;;;;;;;-0.02;53.00;101556.25;5055525;28;20028;-64
2023/03/15 09:30:32;;;;;;;4.07;0.30;;;;;;;0.05;52.33;101533.25;5056351;28;20037;-63
2023/03/15 09:32:57;;;;;;;4.30;0.28;;;;;;;-0.01;52.94;101522.00;5038313;28;20102;-64
2023/03/15 09:35:23;;;;;;;2.05;0.20;;;;;;;0.19;52.98;101529.97;5055758;28;21875;-62
2023/03/15 09:37:49;;;;;;;3.10;0.15;;;;;;;0.14;53.27;101554.75;5053258;28;20586;-64
2023/03/15 09:40:28;;;;;;;5.75;0.35;;;;;;;0.24;52.33;101565.19;5055542;28;20059;-65
2023/03/15 09:43:16;;;;;;;0.93;0.40;;;;;;;0.21;52.14;101554.88;5052367;28;20123;-63
2023/03/15 09:45:54;;;;;;;5.75;0.20;;;;;;;0.25;51.85;101556.63;5044361;28;20059;-64
2023/03/15 09:48:41;;;;;;;2.72;0.10;;;;;;;0.29;52.54;101557.53;5053479;28;20035;-67
2023/03/15 09:51:27;;;;;;;3.25;0.20;;;;;;;0.63;52.46;101558.84;5054960;28;20044;-62
2023/03/15 09:53:59;;;;;;;0.77;0.20;;;;;;;1.55;51.97;101563.25;5053957;28;20583;-63
2023/03/15 09:56:35;;;;;;;2.30;0.20;;;;;;;2.41;49.96;101563.84;5055866;28;20146;-63
2023/03/15 09:59:01;;;;;;;2.92;0.10;;;;;;;2.48;47.98;101588.81;5055195;28;20032;-65
2023/03/15 10:01:36;;;;;;;3.45;0.30;;;;;;;2.43;47.46;101618.91;5054698;28;20573;-63
2023/03/15 10:04:30;;;;;;;0.52;0.00;;;;;;;0.84;50.02;101637.16;5055246;28;20098;-64
2023/03/15 10:06:59;;;;;;;3.92;0.20;;;;;;;-0.15;52.23;101646.00;5053447;28;20737;-65
2023/03/15 10:09:31;;;;;;;3.53;0.22;;;;;;;-0.15;52.44;101657.97;5056763;28;20424;-63
2023/03/15 10:12:10;;;;;;;1.65;0.10;;;;;;;-0.55;53.28;101652.13;5053250;28;20389;-63
2023/03/15 10:15:18;;;;;;;0.43;0.10;;;;;;;-0.63;54.99;101654.56;5055231;28;20513;-65
2023/03/15 10:17:57;;;;;;;0.63;0.40;;;;;;;-0.90;55.21;101648.91;5058218;28;20583;-65
2023/03/15 10:20:34;;;;;;;0.68;0.10;;;;;;;-0.71;54.99;101648.41;5057307;28;20147;-65
2023/03/15 10:23:11;;;;;;;2.05;0.10;;;;;;;-0.48;55.11;101650.53;5056737;28;20052;-66
2023/03/15 10:25:38;;;;;;;1.67;0.10;;;;;;;-0.43;54.14;101636.94;5057814;28;20036;-65
2023/03/15 10:28:08;;;;;;;1.85;0.30;;;;;;;-0.47;53.98;101616.31;5056057;28;20040;-64
2023/03/15 10:30:37;;;;;;;7.82;0.30;;;;;;;-0.19;54.06;101600.53;5056365;28;20059;-63
2023/03/15 10:33:22;;;;;;;5.00;0.52;;;;;;;0.14;53.41;101617.31;5058010;28;20414;-63
2023/03/15 10:35:47;;;;;;;2.55;0.30;;;;;;;0.26;52.21;101611.50;5056214;28;20047;-65
2023/03/15 10:38:19;;;;;;;12.25;0.20;;;;;;;0.46;53.00;101614.38;5060746;28;20258;-64
2023/03/15 10:40:56;;;;;;;4.57;0.25;;;;;;;0.95;52.62;101606.38;5054049;28;20525;-65
2023/03/15 10:43:28;;;;;;;3.08;0.40;;;;;;;1.27;51.96;101619.63;5058048;28;20032;-65
2023/03/15 10:46:01;;;;;;;;;;;;;;;1.32;51.09;101618.81;5055796;28;20068;-64
2023/03/15 10:48:28;;;;;;;1.42;0.20;;;;;;;1.60;51.49;101621.72;5058675;28;19924;-66
2023/03/15 10:50:55;;;;;;;3.58;0.10;;;;;;;2.30;51.58;101621.41;5056087;28;20051;-66
2023/03/15 10:53:24;;;;;;;5.97;0.43;;;;;;;3.39;49.74;101626.19;5042981;28;20036;-66
2023/03/15 10:55:59;;;;;;;8.13;0.75;;;;;;;4.36;46.91;101632.25;5056065;28;20040;-65
2023/03/15 10:58:47;;;;;;;6.18;1.02;;;;;;;4.71;44.20;101623.50;5058504;28;20051;-65
2023/03/15 11:01:22;;;;;;;2.33;0.20;;;;;;;5.07;45.11;101632.03;5058441;28;20111;-67
2023/03/15 11:04:05;;;;;;;1.13;0.30;;;;;;;5.24;44.16;101630.22;5055840;28;20042;-66
2023/03/15 11:06:39;;;;;;;0.90;0.25;;;;;;;5.44;40.58;101634.44;5058503;28;20071;-64
2023/03/15 11:09:17;;;;;;;1.00;0.20;;;;;;;5.86;42.21;101640.19;5056635;28;20551;-66
2023/03/15 11:12:04;;;;;;;1.90;0.20;;;;;;;5.84;41.95;101644.50;5057899;28;20040;-65
2023/03/15 11:14:32;;;;;;;4.10;0.20;;;;;;;5.82;39.59;101646.25;5059453;28;20440;-65
2023/03/15 11:16:58;;;;;;;5.50;0.20;;;;;;;5.43;39.53;101648.25;5037725;28;20100;-67
2023/03/15 11:19:30;;;;;;;0.55;0.10;;;;;;;5.50;40.35;101649.06;5046673;28;20090;-64
2023/03/15 11:21:58;;;;;;;3.80;0.20;;;;;;;6.04;41.15;101658.19;5056968;28;20020;-66
2023/03/15 11:24:27;;;;;;;3.38;0.10;;;;;;;6.12;39.12;101649.47;5040170;28;22067;-66
2023/03/15 11:26:55;;;;;;;7.53;0.17;;;;;;;5.91;37.85;101661.75;5057669;28;20089;-65
2023/03/15 11:29:28;;;;;;;1.95;0.20;;;;;;;6.05;41.05;101659.88;5056349;28;20105;-65
2023/03/15 11:31:54;;;;;;;4.45;0.10;;;;;;;6.25;38.44;101661.47;5056984;28;20036;-66
2023/03/15 11:34:37;;;;;;;1.83;0.10;;;;;;;6.74;39.32;101671.38;5056185;28;20194;-67
2023/03/15 11:37:13;;;;;;;1.95;0.40;;;;;;;6.87;39.52;101670.34;5055806;28;20481;-65
2023/03/15 11:39:48;;;;;;;5.60;0.20;;;;;;;7.21;38.70;101663.88;5056383;28;20521;-65
2023/03/15 11:42:20;;;;;;;4.82;0.45;;;;;;;6.32;38.69;101667.47;5056436;28;20031;-67
2023/03/15 11:44:50;;;;;;;6.40;0.20;;;;;;;6.92;39.37;101662.50;5055016;28;20208;-67